Time,TemperatureF,DewpointF,PressureIn,WindDirection,WindDirectionDegrees,WindSpeedMPH,WindSpeedGustMPH,Humidity,HourlyPrecipIn,Conditions,Clouds,dailyrainin,SoftwareType,DateUTC
2013-01-23 00:16:00,29.1,5.0,30.34,SSW,212,1.0,7.0,36,0.00,,,0.00,weatherlink.com 1.10,2013-01-23 05:16:00,
2013-01-23 00:46:00,29.0,6.0,30.35,South,190,3.0,7.0,38,0.00,,,0.00,weatherlink.com 1.10,2013-01-23 05:46:00,
2013-01-23 01:01:00,29.0,7.0,30.35,West,274,2.0,6.0,39,0.00,,,0.00,weatherlink.com 1.10,2013-01-23 06:01:00,
2013-01-23 01:16:00,29.0,7.0,30.35,SSE,148,1.0,4.0,40,0.00,,,0.00,weatherlink.com 1.10,2013-01-23 06:16:00,
2013-01-23 01:31:00,28.9,7.0,30.35,SSW,205,0.0,6.0,40,0.00,,,0.00,weatherlink.com 1.10,2013-01-23 06:31:00,
2013-01-23 01:46:00,28.9,7.0,30.35,South,184,2.0,6.0,40,0.00,,,0.00,weatherlink.com 1.10,2013-01-23 06:46:00,
2013-01-23 02:01:00,29.1,8.0,30.35,WSW,252,2.0,8.0,41,0.00,,,0.00,weatherlink.com 1.10,2013-01-23 07:01:00,
2013-01-23 02:16:00,29.0,7.0,30.36,West,277,2.0,6.0,40,0.00,,,0.00,weatherlink.com 1.10,2013-01-23 07:16:00,
2013-01-23 02:31:00,29.2,8.0,30.36,SW,218,5.0,6.0,41,0.00,,,0.00,weatherlink.com 1.10,2013-01-23 07:31:00,
2013-01-23 02:46:00,29.2,9.0,30.36,SSW,205,1.0,4.0,42,0.00,,,0.00,weatherlink.com 1.10,2013-01-23 07:46:00,
2013-01-23 03:01:00,29.2,8.0,30.36,SW,227,1.0,7.0,41,0.00,,,0.00,weatherlink.com 1.10,2013-01-23 08:01:00,
2013-01-23 03:16:00,29.3,8.0,30.36,SSW,198,3.0,4.0,41,0.00,,,0.00,weatherlink.com 1.10,2013-01-23 08:16:00,
2013-01-23 03:31:00,29.3,8.0,30.36,SW,221,3.0,7.0,41,0.00,,,0.00,weatherlink.com 1.10,2013-01-23 08:31:00,
2013-01-23 03:46:00,29.3,8.0,30.36,SSW,212,5.0,8.0,41,0.00,,,0.00,weatherlink.com 1.10,2013-01-23 08:46:00,
2013-01-23 04:01:00,29.3,8.0,30.36,WSW,238,3.0,4.0,41,0.00,,,0.00,weatherlink.com 1.10,2013-01-23 09:01:00,
2013-01-23 04:16:00,29.2,8.0,30.36,WNW,300,6.0,6.0,41,0.00,,,0.00,weatherlink.com 1.10,2013-01-23 09:16:00,
2013-01-23 04:31:00,29.2,8.0,30.36,North,5,0.0,3.0,40,0.00,,,0.00,weatherlink.com 1.10,2013-01-23 09:31:00,
2013-01-23 04:46:00,29.1,9.0,30.35,WNW,300,0.0,2.0,42,0.00,,,0.00,weatherlink.com 1.10,2013-01-23 09:46:00,
2013-01-23 05:01:00,29.0,9.0,30.36,NNW,339,0.0,2.0,43,0.00,,,0.00,weatherlink.com 1.10,2013-01-23 10:01:00,
2013-01-23 05:16:00,29.2,9.0,30.36,WSW,245,0.0,5.0,43,0.00,,,0.00,weatherlink.com 1.10,2013-01-23 10:16:00,
2013-01-23 05:46:00,29.2,8.0,30.36,NE,52,0.0,4.0,41,0.00,,,0.00,weatherlink.com 1.10,2013-01-23 10:46:00,
2013-01-23 06:01:00,29.2,8.0,30.37,SSW,213,0.0,3.0,41,0.00,,,0.00,weatherlink.com 1.10,2013-01-23 11:01:00,
2013-01-23 06:16:00,29.1,10.0,30.37,SSW,207,1.0,3.0,44,0.00,,,0.00,weatherlink.com 1.10,2013-01-23 11:16:00,
2013-01-23 06:46:00,28.7,9.0,30.38,SW,223,2.0,4.0,44,0.00,,,0.00,weatherlink.com 1.10,2013-01-23 11:46:00,
2013-01-23 07:01:00,28.1,10.0,30.38,NW,313,0.0,3.0,47,0.00,,,0.00,weatherlink.com 1.10,2013-01-23 12:01:00,
2013-01-23 07:16:00,27.4,11.0,30.38,NW,313,0.0,1.0,51,0.00,,,0.00,weatherlink.com 1.10,2013-01-23 12:16:00,
2013-01-23 07:31:00,26.7,11.0,30.38,NW,313,0.0,2.0,52,0.00,,,0.00,weatherlink.com 1.10,2013-01-23 12:31:00,
2013-01-23 08:01:00,25.6,14.0,30.38,NW,313,0.0,1.0,61,0.00,,,0.00,weatherlink.com 1.10,2013-01-23 13:01:00,
2013-01-23 08:16:00,25.4,15.0,30.38,NW,314,0.0,1.0,64,0.00,,,0.00,weatherlink.com 1.10,2013-01-23 13:16:00,
2013-01-23 08:31:00,25.5,15.0,30.38,NW,317,1.0,2.0,64,0.00,,,0.00,weatherlink.com 1.10,2013-01-23 13:31:00,
2013-01-23 08:46:00,26.0,13.0,30.38,NW,317,0.0,0.0,59,0.00,,,0.00,weatherlink.com 1.10,2013-01-23 13:46:00,
2013-01-23 09:01:00,26.9,13.0,30.38,NNW,347,0.0,2.0,57,0.00,,,0.00,weatherlink.com 1.10,2013-01-23 14:01:00,
2013-01-23 09:16:00,27.9,12.0,30.39,NNW,347,0.0,0.0,52,0.00,,,0.00,weatherlink.com 1.10,2013-01-23 14:16:00,
2013-01-23 09:31:00,29.1,11.0,30.39,SSW,207,0.0,4.0,47,0.00,,,0.00,weatherlink.com 1.10,2013-01-23 14:31:00,
2013-01-23 09:46:00,29.6,11.0,30.39,South,170,0.0,2.0,47,0.00,,,0.00,weatherlink.com 1.10,2013-01-23 14:46:00,
2013-01-23 10:01:00,29.9,12.0,30.40,NNW,344,1.0,4.0,48,0.00,,,0.00,weatherlink.com 1.10,2013-01-23 15:01:00,
2013-01-23 10:16:00,30.2,12.0,30.40,NNW,333,1.0,3.0,47,0.00,,,0.00,weatherlink.com 1.10,2013-01-23 15:16:00,
2013-01-23 10:32:00,31.7,14.0,30.40,NW,322,4.0,7.0,48,0.00,,,0.00,weatherlink.com 1.10,2013-01-23 15:32:00,
2013-01-23 10:47:00,33.2,16.0,30.39,NW,323,0.0,3.0,50,0.00,,,0.00,weatherlink.com 1.10,2013-01-23 15:47:00,
2013-01-23 11:02:00,34.4,18.0,30.38,NW,325,2.0,4.0,51,0.00,,,0.00,weatherlink.com 1.10,2013-01-23 16:02:00,
2013-01-23 11:17:00,35.7,19.0,30.37,NNW,336,3.0,6.0,52,0.00,,,0.00,weatherlink.com 1.10,2013-01-23 16:17:00,
2013-01-23 11:32:00,37.1,19.0,30.36,North,350,0.0,3.0,49,0.00,,,0.00,weatherlink.com 1.10,2013-01-23 16:32:00,
2013-01-23 11:47:00,38.9,21.0,30.35,SSW,192,6.0,9.0,48,0.00,,,0.00,weatherlink.com 1.10,2013-01-23 16:47:00,
2013-01-23 12:02:00,39.4,21.0,30.34,SW,220,7.0,9.0,47,0.00,,,0.00,weatherlink.com 1.10,2013-01-23 17:02:00,
2013-01-23 12:17:00,39.6,21.0,30.33,West,279,2.0,9.0,47,0.00,,,0.00,weatherlink.com 1.10,2013-01-23 17:17:00,
2013-01-23 12:32:00,40.9,22.0,30.31,SW,221,1.0,7.0,47,0.00,,,0.00,weatherlink.com 1.10,2013-01-23 17:32:00,
2013-01-23 12:47:00,41.6,24.0,30.29,SW,227,6.0,14.0,49,0.00,,,0.00,weatherlink.com 1.10,2013-01-23 17:47:00,
2013-01-23 13:02:00,42.1,24.0,30.28,SW,216,8.0,12.0,48,0.00,,,0.00,weatherlink.com 1.10,2013-01-23 18:02:00,
2013-01-23 13:17:00,42.5,25.0,30.27,SW,229,4.0,12.0,51,0.00,,,0.00,weatherlink.com 1.10,2013-01-23 18:17:00,
2013-01-23 13:32:00,43.3,25.0,30.26,North,355,1.0,7.0,49,0.00,,,0.00,weatherlink.com 1.10,2013-01-23 18:32:00,
2013-01-23 13:47:00,43.8,25.0,30.25,SSW,207,5.0,15.0,48,0.00,,,0.00,weatherlink.com 1.10,2013-01-23 18:47:00,
2013-01-23 14:02:00,44.3,26.0,30.23,SW,219,0.0,12.0,48,0.00,,,0.00,weatherlink.com 1.10,2013-01-23 19:02:00,
2013-01-23 14:18:00,44.9,26.0,30.23,South,191,2.0,12.0,48,0.00,,,0.00,weatherlink.com 1.10,2013-01-23 19:18:00,
2013-01-23 14:32:00,45.0,26.0,30.24,SSW,200,9.0,13.0,48,0.00,,,0.00,weatherlink.com 1.10,2013-01-23 19:32:00,
2013-01-23 14:47:00,44.9,25.0,30.23,WSW,243,4.0,11.0,46,0.00,,,0.00,weatherlink.com 1.10,2013-01-23 19:47:00,
2013-01-23 15:02:00,44.4,25.0,30.23,SW,223,8.0,10.0,47,0.00,,,0.00,weatherlink.com 1.10,2013-01-23 20:02:00,
2013-01-23 15:17:00,44.1,26.0,30.22,WSW,252,1.0,11.0,49,0.00,,,0.00,weatherlink.com 1.10,2013-01-23 20:17:00,
2013-01-23 15:33:00,44.0,25.0,30.21,South,188,2.0,11.0,47,0.00,,,0.00,weatherlink.com 1.10,2013-01-23 20:33:00,
2013-01-23 15:48:00,44.1,25.0,30.20,NE,47,2.0,7.0,48,0.00,,,0.00,weatherlink.com 1.10,2013-01-23 20:48:00,
2013-01-23 16:03:00,43.6,26.0,30.20,SW,223,0.0,4.0,50,0.00,,,0.00,weatherlink.com 1.10,2013-01-23 21:03:00,
2013-01-23 16:18:00,43.1,26.0,30.20,SW,235,0.0,2.0,51,0.00,,,0.00,weatherlink.com 1.10,2013-01-23 21:18:00,
2013-01-23 16:33:00,42.8,26.0,30.20,South,182,1.0,2.0,51,0.00,,,0.00,weatherlink.com 1.10,2013-01-23 21:33:00,
2013-01-23 16:48:00,42.5,26.0,30.20,NE,45,3.0,3.0,52,0.00,,,0.00,weatherlink.com 1.10,2013-01-23 21:48:00,
2013-01-23 17:03:00,42.1,26.0,30.20,NE,40,0.0,1.0,54,0.00,,,0.00,weatherlink.com 1.10,2013-01-23 22:03:00,
2013-01-23 17:18:00,41.1,26.0,30.20,NE,38,0.0,1.0,56,0.00,,,0.00,weatherlink.com 1.10,2013-01-23 22:18:00,
2013-01-23 17:33:00,39.8,27.0,30.19,NE,38,2.0,2.0,60,0.00,,,0.00,weatherlink.com 1.10,2013-01-23 22:33:00,
2013-01-23 17:48:00,38.6,27.0,30.19,NE,38,0.0,1.0,63,0.00,,,0.00,weatherlink.com 1.10,2013-01-23 22:48:00,
2013-01-23 18:03:00,36.6,28.0,30.19,NE,37,0.0,3.0,71,0.00,,,0.00,weatherlink.com 1.10,2013-01-23 23:03:00,
2013-01-23 18:18:00,35.3,28.0,30.19,North,5,1.0,3.0,75,0.00,,,0.00,weatherlink.com 1.10,2013-01-23 23:18:00,
2013-01-23 18:33:00,34.4,27.0,30.19,NNW,348,0.0,3.0,75,0.00,,,0.00,weatherlink.com 1.10,2013-01-23 23:33:00,
2013-01-23 18:48:00,33.9,27.0,30.18,North,360,2.0,3.0,77,0.00,,,0.00,weatherlink.com 1.10,2013-01-23 23:48:00,
2013-01-23 19:03:00,33.3,27.0,30.18,NNW,344,0.0,3.0,79,0.00,,,0.00,weatherlink.com 1.10,2013-01-24 00:03:00,
2013-01-23 19:18:00,32.8,27.0,30.18,NNW,344,0.0,1.0,80,0.00,,,0.00,weatherlink.com 1.10,2013-01-24 00:18:00,
2013-01-23 19:33:00,32.5,27.0,30.17,NNW,344,0.0,2.0,80,0.00,,,0.00,weatherlink.com 1.10,2013-01-24 00:33:00,
2013-01-23 19:48:00,32.3,26.0,30.16,NNW,345,1.0,2.0,79,0.00,,,0.00,weatherlink.com 1.10,2013-01-24 00:48:00,
2013-01-23 20:03:00,32.0,26.0,30.17,NNW,345,0.0,1.0,78,0.00,,,0.00,weatherlink.com 1.10,2013-01-24 01:03:00,
2013-01-23 20:18:00,31.9,27.0,30.17,NNW,345,0.0,2.0,81,0.00,,,0.00,weatherlink.com 1.10,2013-01-24 01:18:00,
2013-01-23 20:33:00,31.7,27.0,30.16,NNW,346,0.0,1.0,82,0.00,,,0.00,weatherlink.com 1.10,2013-01-24 01:33:00,
2013-01-23 20:48:00,31.5,26.0,30.16,NNW,346,1.0,2.0,81,0.00,,,0.00,weatherlink.com 1.10,2013-01-24 01:48:00,
2013-01-23 21:03:00,31.4,27.0,30.15,North,355,0.0,2.0,83,0.00,,,0.00,weatherlink.com 1.10,2013-01-24 02:03:00,
2013-01-23 21:18:00,31.1,26.0,30.15,North,355,0.0,1.0,82,0.00,,,0.00,weatherlink.com 1.10,2013-01-24 02:18:00,
2013-01-23 21:33:00,31.0,26.0,30.15,North,355,0.0,0.0,83,0.00,,,0.00,weatherlink.com 1.10,2013-01-24 02:33:00,
2013-01-23 21:48:00,30.9,27.0,30.14,North,360,2.0,3.0,85,0.00,,,0.00,weatherlink.com 1.10,2013-01-24 02:48:00,
2013-01-23 22:03:00,31.2,27.0,30.14,North,355,0.0,2.0,85,0.00,,,0.00,weatherlink.com 1.10,2013-01-24 03:03:00,
2013-01-23 22:18:00,31.6,27.0,30.14,ENE,57,0.0,3.0,84,0.00,,,0.00,weatherlink.com 1.10,2013-01-24 03:18:00,
2013-01-23 22:33:00,32.0,28.0,30.14,ENE,57,2.0,3.0,85,0.00,,,0.00,weatherlink.com 1.10,2013-01-24 03:33:00,
2013-01-23 22:48:00,33.1,29.0,30.13,ESE,107,2.0,2.0,84,0.00,,,0.00,weatherlink.com 1.10,2013-01-24 03:48:00,
2013-01-23 23:03:00,34.8,30.0,30.13,SSE,166,1.0,3.0,83,0.00,,,0.00,weatherlink.com 1.10,2013-01-24 04:03:00,
2013-01-23 23:18:00,37.6,32.0,30.13,North,5,0.0,5.0,81,0.00,,,0.00,weatherlink.com 1.10,2013-01-24 04:18:00,
2013-01-23 23:33:00,40.3,34.0,30.13,ENE,74,2.0,4.0,77,0.00,,,0.00,weatherlink.com 1.10,2013-01-24 04:33:00,
2013-01-23 23:48:00,42.7,34.0,30.13,NNE,13,1.0,2.0,71,0.00,,,0.00,weatherlink.com 1.10,2013-01-24 04:48:00,